Time;durP1;ratioP1;P1;durP2;ratioP2;P2;SDS_P1;SDS_P2;PMS_P1;PMS_P2;Temp;Humidity;BMP_temperature;BMP_pressure;BME280_temperature;BME280_humidity;BME280_pressure;Samples;Min_cycle;Max_cycle;Signal;HPM_P1;HPM_P2
2023/08/15 00:01:57;;;;;;;3.13;2.93;;;24.60;99.90;;;;;;4925480;28;20464;-75
2023/08/15 00:04:23;;;;;;;3.57;3.37;;;24.50;99.90;;;;;;4922558;28;20466;-75
2023/08/15 00:06:50;;;;;;;3.00;2.80;;;24.50;99.90;;;;;;4920107;28;21002;-76
2023/08/15 00:09:17;;;;;;;3.53;3.23;;;24.50;99.90;;;;;;4922871;28;20992;-75
2023/08/15 00:11:44;;;;;;;3.00;2.80;;;24.50;99.90;;;;;;4918924;29;20497;-76
2023/08/15 00:14:11;;;;;;;3.07;2.77;;;24.50;99.90;;;;;;4923135;28;20474;-75
2023/08/15 00:16:39;;;;;;;3.37;3.07;;;24.50;99.90;;;;;;4919991;29;20561;-76
2023/08/15 00:19:06;;;;;;;3.80;3.20;;;24.50;99.90;;;;;;4921570;28;20463;-76
2023/08/15 00:21:33;;;;;;;3.10;2.80;;;24.50;99.90;;;;;;4921332;28;20890;-76
2023/08/15 00:24:00;;;;;;;3.37;3.17;;;24.50;99.90;;;;;;4929848;28;20481;-76
2023/08/15 00:26:26;;;;;;;3.33;3.13;;;24.50;99.90;;;;;;4929550;28;21170;-75
2023/08/15 00:28:53;;;;;;;6.00;3.03;;;24.50;99.90;;;;;;4928219;28;20473;-74
2023/08/15 00:31:20;;;;;;;3.57;2.83;;;24.50;99.90;;;;;;4928290;28;20462;-74
2023/08/15 00:33:48;;;;;;;3.27;2.93;;;24.50;99.90;;;;;;4924028;28;20457;-74
2023/08/15 00:36:15;;;;;;;3.63;3.33;;;24.50;99.90;;;;;;4919457;28;20967;-75
2023/08/15 00:38:41;;;;;;;2.83;2.60;;;24.40;99.90;;;;;;4918523;28;20474;-75
2023/08/15 00:41:08;;;;;;;3.13;2.93;;;24.50;99.90;;;;;;4914516;28;20507;-75
2023/08/15 00:43:35;;;;;;;3.10;2.80;;;24.50;99.90;;;;;;4914209;28;20474;-74
2023/08/15 00:46:04;;;;;;;3.73;3.43;;;24.40;99.90;;;;;;4914161;29;20485;-74
2023/08/15 00:48:32;;;;;;;2.90;2.70;;;24.40;99.90;;;;;;4915903;28;20475;-75
2023/08/15 00:51:02;;;;;;;2.97;2.67;;;24.40;99.90;;;;;;4914385;28;20477;-76
2023/08/15 00:53:31;;;;;;;3.77;3.47;;;24.40;99.90;;;;;;4914414;28;20508;-76
2023/08/15 00:55:59;;;;;;;2.93;2.73;;;24.40;99.90;;;;;;4917467;28;20462;-74
2023/08/15 00:58:26;;;;;;;2.93;2.73;;;24.30;99.90;;;;;;4918935;29;20473;-76
2023/08/15 01:01:00;;;;;;;3.17;2.97;;;24.40;99.90;;;;;;4924455;28;20466;-81
2023/08/15 01:03:27;;;;;;;3.40;3.10;;;24.30;99.90;;;;;;4922426;28;20572;-82
2023/08/15 01:05:55;;;;;;;3.93;3.63;;;24.40;99.90;;;;;;4921584;28;20480;-77
2023/08/15 01:08:23;;;;;;;3.30;3.00;;;24.30;99.90;;;;;;4931396;29;20469;-76
2023/08/15 01:10:50;;;;;;;3.40;3.10;;;24.30;99.90;;;;;;4921598;28;20462;-75
2023/08/15 01:13:26;;;;;;;3.80;3.23;;;24.30;99.90;;;;;;4922349;28;20522;-75
2023/08/15 01:15:53;;;;;;;2.50;2.30;;;24.30;99.90;;;;;;4925131;29;20478;-75
2023/08/15 01:18:26;;;;;;;2.70;2.50;;;24.30;99.90;;;;;;4927282;28;20469;-75
2023/08/15 01:20:56;;;;;;;2.90;2.70;;;24.30;99.90;;;;;;4926404;28;21085;-75
2023/08/15 01:23:42;;;;;;;3.07;2.87;;;24.30;99.90;;;;;;4923590;28;20471;-74
2023/08/15 01:26:09;;;;;;;3.03;2.83;;;24.30;99.90;;;;;;4922841;28;20493;-74
2023/08/15 01:28:38;;;;;;;3.07;2.87;;;24.30;99.90;;;;;;4923267;28;20466;-74
2023/08/15 01:31:11;;;;;;;2.93;2.73;;;24.30;99.90;;;;;;4919494;28;21095;-75
2023/08/15 01:33:42;;;;;;;3.17;2.93;;;24.30;99.90;;;;;;4920974;28;20477;-74
2023/08/15 01:36:14;;;;;;;4.70;2.80;;;24.30;99.90;;;;;;4924662;28;20467;-75
2023/08/15 01:38:45;;;;;;;4.03;3.50;;;24.20;99.90;;;;;;4915151;28;20848;-75
2023/08/15 01:41:15;;;;;;;2.90;2.70;;;24.30;99.90;;;;;;4921963;28;20829;-75
2023/08/15 01:43:44;;;;;;;3.23;2.93;;;24.20;99.90;;;;;;4917887;28;20469;-76
2023/08/15 01:46:13;;;;;;;3.13;2.90;;;24.30;99.90;;;;;;4914393;28;20884;-75
2023/08/15 01:48:41;;;;;;;2.70;2.50;;;24.20;99.90;;;;;;4919217;28;20489;-75
2023/08/15 01:51:08;;;;;;;3.13;2.83;;;24.30;99.90;;;;;;4913375;28;20476;-75
2023/08/15 01:53:35;;;;;;;3.17;2.97;;;24.20;99.90;;;;;;4912930;28;20950;-76
2023/08/15 01:56:03;;;;;;;3.23;3.00;;;24.20;99.90;;;;;;4913294;28;20473;-75
2023/08/15 01:58:30;;;;;;;2.93;2.63;;;24.20;99.90;;;;;;4912358;28;20468;-75
2023/08/15 02:00:57;;;;;;;3.00;2.70;;;24.20;99.90;;;;;;4914576;28;20492;-75
2023/08/15 02:03:25;;;;;;;3.30;3.00;;;24.20;99.90;;;;;;4913894;28;20468;-75
2023/08/15 02:05:52;;;;;;;3.10;2.90;;;24.20;99.90;;;;;;4913299;28;20480;-75
2023/08/15 02:08:18;;;;;;;2.67;2.47;;;24.20;99.90;;;;;;4913319;28;20469;-75
2023/08/15 02:10:45;;;;;;;3.53;2.83;;;24.20;99.90;;;;;;4919154;28;20925;-76
2023/08/15 02:13:13;;;;;;;2.93;2.73;;;24.20;99.90;;;;;;4920340;28;20473;-76
2023/08/15 02:15:40;;;;;;;3.03;2.83;;;24.20;99.90;;;;;;4917849;28;22277;-76
2023/08/15 02:18:07;;;;;;;3.90;3.07;;;24.20;99.90;;;;;;4915640;28;21223;-76
2023/08/15 02:20:34;;;;;;;3.50;3.20;;;24.20;99.90;;;;;;4919117;28;21073;-76
2023/08/15 02:23:01;;;;;;;3.70;3.40;;;24.20;99.90;;;;;;4923021;28;20485;-76
2023/08/15 02:25:27;;;;;;;3.00;2.80;;;24.10;99.90;;;;;;4923657;29;20474;-76
2023/08/15 02:27:54;;;;;;;3.80;3.43;;;24.10;99.90;;;;;;4920851;28;20494;-76
2023/08/15 02:30:22;;;;;;;2.93;2.73;;;24.10;99.90;;;;;;4920883;28;21810;-76
2023/08/15 02:32:49;;;;;;;2.80;2.60;;;24.10;99.90;;;;;;4921233;28;20476;-76
2023/08/15 02:35:16;;;;;;;3.67;3.33;;;24.10;99.90;;;;;;4922672;29;20501;-75
2023/08/15 02:37:43;;;;;;;2.90;2.57;;;24.20;99.90;;;;;;4923497;28;20839;-80
2023/08/15 02:40:10;;;;;;;3.17;2.87;;;24.10;99.90;;;;;;4923501;28;21040;-80
2023/08/15 02:42:36;;;;;;;2.97;2.77;;;24.10;99.90;;;;;;4918365;28;20714;-79
2023/08/15 02:45:04;;;;;;;2.87;2.67;;;24.10;99.90;;;;;;4918364;28;20466;-79
2023/08/15 02:47:32;;;;;;;3.50;3.17;;;24.10;99.90;;;;;;4918159;28;20498;-79
2023/08/15 02:49:59;;;;;;;2.37;2.17;;;24.10;99.90;;;;;;4918521;28;20485;-79
2023/08/15 02:52:25;;;;;;;3.10;2.80;;;24.10;99.90;;;;;;4923042;29;20990;-79
2023/08/15 02:54:52;;;;;;;3.23;2.93;;;24.10;99.90;;;;;;4920811;28;20732;-79
2023/08/15 02:57:19;;;;;;;3.43;3.13;;;24.10;99.90;;;;;;4918417;29;20473;-81
2023/08/15 02:59:45;;;;;;;3.83;3.53;;;24.00;99.90;;;;;;4920331;28;20465;-79
2023/08/15 03:02:13;;;;;;;3.13;2.60;;;24.00;99.90;;;;;;4922527;29;20843;-79
2023/08/15 03:04:42;;;;;;;3.00;2.80;;;24.10;99.90;;;;;;4918828;28;21086;-79
2023/08/15 03:07:09;;;;;;;2.77;2.57;;;24.10;99.90;;;;;;4915511;28;20487;-79
2023/08/15 03:09:35;;;;;;;3.43;2.90;;;24.00;99.90;;;;;;4915830;28;22236;-79
2023/08/15 03:12:02;;;;;;;3.10;2.80;;;24.00;99.90;;;;;;4923411;28;20801;-79
2023/08/15 03:14:29;;;;;;;2.83;2.60;;;24.00;99.90;;;;;;4917333;28;20472;-79
2023/08/15 03:16:56;;;;;;;3.10;2.90;;;24.00;99.90;;;;;;4917704;28;20465;-79
2023/08/15 03:19:23;;;;;;;3.47;3.20;;;24.00;99.90;;;;;;4914638;28;20477;-79
2023/08/15 03:21:51;;;;;;;2.63;2.43;;;24.00;99.90;;;;;;4916502;28;20474;-79
2023/08/15 03:24:17;;;;;;;5.03;2.90;;;24.00;99.90;;;;;;4918152;28;20473;-80
2023/08/15 03:26:44;;;;;;;3.13;2.73;;;24.00;99.90;;;;;;4918246;28;21044;-79
2023/08/15 03:29:11;;;;;;;3.53;3.20;;;24.00;99.90;;;;;;4918370;29;20473;-79
2023/08/15 03:31:38;;;;;;;3.70;3.40;;;24.00;99.90;;;;;;4912664;28;20500;-79
2023/08/15 03:34:05;;;;;;;3.40;2.77;;;24.00;99.90;;;;;;4917032;28;20970;-79
2023/08/15 03:36:31;;;;;;;3.50;3.20;;;24.00;99.90;;;;;;4921042;28;20469;-79
2023/08/15 03:39:00;;;;;;;3.50;3.20;;;24.00;99.90;;;;;;4921708;28;20468;-79
2023/08/15 03:41:26;;;;;;;3.07;2.87;;;24.00;99.90;;;;;;4921856;28;20843;-79
2023/08/15 03:43:53;;;;;;;2.80;2.30;;;24.00;99.90;;;;;;4917610;28;20466;-79
2023/08/15 03:46:20;;;;;;;2.70;2.50;;;24.00;99.90;;;;;;4921052;28;20929;-79
2023/08/15 03:48:47;;;;;;;2.83;2.57;;;24.00;99.90;;;;;;4925662;28;20521;-79
2023/08/15 03:51:14;;;;;;;3.10;2.63;;;24.00;99.90;;;;;;4921758;28;20469;-79
2023/08/15 03:53:43;;;;;;;3.27;3.00;;;24.00;99.90;;;;;;4925914;28;20476;-79
2023/08/15 03:56:11;;;;;;;3.97;3.57;;;24.00;99.90;;;;;;4927289;28;20475;-79
2023/08/15 03:58:38;;;;;;;4.03;3.30;;;24.00;99.90;;;;;;4925383;28;21077;-79
2023/08/15 04:01:04;;;;;;;3.23;2.73;;;23.90;99.90;;;;;;4921637;28;20600;-79
2023/08/15 04:03:31;;;;;;;3.73;3.43;;;24.00;99.90;;;;;;4925688;28;20472;-79
2023/08/15 04:05:58;;;;;;;3.50;3.20;;;24.00;99.90;;;;;;4927302;28;20473;-80
2023/08/15 04:08:25;;;;;;;4.33;3.63;;;24.00;99.90;;;;;;4927111;28;20961;-79
2023/08/15 04:10:51;;;;;;;4.17;3.10;;;24.00;99.90;;;;;;4923967;28;20483;-80
2023/08/15 04:13:20;;;;;;;2.83;2.63;;;24.00;99.90;;;;;;4925057;28;20493;-79
2023/08/15 04:15:47;;;;;;;3.50;3.20;;;23.90;99.90;;;;;;4924007;28;20468;-80
2023/08/15 04:18:13;;;;;;;3.27;2.97;;;23.90;99.90;;;;;;4928232;28;20478;-80
2023/08/15 04:20:41;;;;;;;3.60;2.80;;;23.90;99.90;;;;;;4928461;28;20836;-79
2023/08/15 04:23:09;;;;;;;3.23;3.03;;;23.90;99.90;;;;;;4927131;28;20555;-79
2023/08/15 04:25:37;;;;;;;3.67;3.37;;;23.90;99.90;;;;;;4925201;28;20469;-80
2023/08/15 04:28:04;;;;;;;5.27;3.23;;;23.90;99.90;;;;;;4927598;28;20579;-80
2023/08/15 04:30:32;;;;;;;3.80;3.13;;;23.90;99.90;;;;;;4929786;28;20942;-76
2023/08/15 04:32:59;;;;;;;3.60;2.43;;;23.90;99.90;;;;;;4928484;28;20464;-75
2023/08/15 04:35:26;;;;;;;3.50;3.20;;;23.90;99.90;;;;;;4929260;28;20480;-75
2023/08/15 04:37:53;;;;;;;4.33;3.30;;;23.90;99.90;;;;;;4925764;28;20470;-79
2023/08/15 04:40:31;;;;;;;5.60;3.83;;;23.90;99.90;;;;;;4916988;28;20577;-79
2023/08/15 04:42:58;;;;;;;3.20;2.87;;;23.90;99.90;;;;;;4917915;28;20510;-78
2023/08/15 04:45:25;;;;;;;9.50;3.87;;;23.90;99.90;;;;;;4916313;28;20470;-78
2023/08/15 04:47:53;;;;;;;4.13;3.63;;;23.90;99.90;;;;;;4918159;28;21032;-77
2023/08/15 04:50:20;;;;;;;3.37;3.03;;;23.90;99.90;;;;;;4921170;28;20493;-77
2023/08/15 04:52:47;;;;;;;3.43;3.17;;;23.90;99.90;;;;;;4919191;28;20470;-75
2023/08/15 04:55:14;;;;;;;3.50;3.00;;;23.90;99.90;;;;;;4919018;28;20460;-76
2023/08/15 04:57:41;;;;;;;3.03;2.83;;;23.90;99.90;;;;;;4922254;28;21110;-76
2023/08/15 05:00:11;;;;;;;5.13;3.20;;;23.90;99.90;;;;;;4923767;29;20465;-77
2023/08/15 05:02:37;;;;;;;3.13;2.83;;;24.00;99.90;;;;;;4926760;29;20477;-76
2023/08/15 05:05:09;;;;;;;3.17;2.97;;;23.90;99.90;;;;;;4923979;28;20492;-77
2023/08/15 05:07:36;;;;;;;2.80;2.60;;;23.90;99.90;;;;;;4919326;28;20585;-77
2023/08/15 05:10:02;;;;;;;2.40;2.23;;;23.90;99.90;;;;;;4916416;28;20773;-77
2023/08/15 05:12:29;;;;;;;3.40;2.83;;;23.90;99.90;;;;;;4917799;28;20549;-76
2023/08/15 05:14:56;;;;;;;8.40;3.43;;;23.90;99.90;;;;;;4922329;28;20469;-76
2023/08/15 05:17:23;;;;;;;3.10;2.80;;;23.90;99.90;;;;;;4921299;28;20464;-76
2023/08/15 05:19:50;;;;;;;3.20;2.80;;;23.90;99.90;;;;;;4921529;28;20480;-77
2023/08/15 05:22:19;;;;;;;3.00;2.80;;;23.90;99.90;;;;;;4921312;28;20464;-76
2023/08/15 05:24:45;;;;;;;3.40;3.10;;;23.90;99.90;;;;;;4920830;28;20474;-77
2023/08/15 05:27:13;;;;;;;3.43;3.13;;;23.90;99.90;;;;;;4918343;28;20490;-77
2023/08/15 05:29:41;;;;;;;2.80;2.60;;;23.90;99.90;;;;;;4924059;28;21086;-77
2023/08/15 05:32:08;;;;;;;3.43;3.13;;;23.90;99.90;;;;;;4917605;28;21084;-76
2023/08/15 05:34:35;;;;;;;3.43;2.90;;;23.90;99.90;;;;;;4927456;28;20834;-76
2023/08/15 05:37:02;;;;;;;3.67;2.40;;;23.90;99.90;;;;;;4920715;28;20473;-77
2023/08/15 05:39:30;;;;;;;3.10;2.80;;;23.90;99.90;;;;;;4918940;28;20472;-78
2023/08/15 05:41:56;;;;;;;3.50;3.20;;;23.90;99.90;;;;;;4915984;28;20482;-76
2023/08/15 05:44:23;;;;;;;2.90;2.70;;;23.90;99.90;;;;;;4918931;28;20987;-76
2023/08/15 05:46:50;;;;;;;2.73;2.53;;;23.90;99.90;;;;;;4919806;28;20842;-76
2023/08/15 05:49:17;;;;;;;2.70;2.50;;;23.90;99.90;;;;;;4923545;28;21031;-76
2023/08/15 05:51:43;;;;;;;4.03;3.23;;;23.90;99.90;;;;;;4921984;28;20476;-76
2023/08/15 05:54:10;;;;;;;2.87;2.67;;;23.90;99.90;;;;;;4924729;28;20469;-76
2023/08/15 05:56:40;;;;;;;2.80;2.60;;;23.80;99.90;;;;;;4925036;28;20555;-76
2023/08/15 05:59:06;;;;;;;3.00;2.80;;;23.90;99.90;;;;;;4922621;28;20573;-77
2023/08/15 06:01:33;;;;;;;3.23;2.93;;;23.90;99.90;;;;;;4921926;28;20831;-76
2023/08/15 06:04:00;;;;;;;5.50;3.17;;;23.80;99.90;;;;;;4921185;28;20986;-76
2023/08/15 06:06:27;;;;;;;3.73;3.30;;;23.80;99.90;;;;;;4921656;28;20613;-76
2023/08/15 06:08:55;;;;;;;4.57;3.63;;;23.90;99.90;;;;;;4924328;28;20995;-75
2023/08/15 06:11:22;;;;;;;3.20;2.90;;;23.90;99.90;;;;;;4924195;28;20478;-75
2023/08/15 06:13:50;;;;;;;3.90;3.53;;;23.90;99.90;;;;;;4920506;28;20474;-76
2023/08/15 06:16:16;;;;;;;3.60;3.30;;;23.90;99.90;;;;;;4917585;28;20831;-76
2023/08/15 06:18:43;;;;;;;3.30;3.00;;;23.90;99.90;;;;;;4927292;28;20469;-76
2023/08/15 06:21:10;;;;;;;3.90;3.50;;;23.90;99.90;;;;;;4922231;28;20469;-76
2023/08/15 06:23:37;;;;;;;4.40;3.67;;;23.90;99.90;;;;;;4930595;28;21498;-76
2023/08/15 06:26:04;;;;;;;3.20;2.90;;;23.90;99.90;;;;;;4921766;28;20969;-76
2023/08/15 06:28:30;;;;;;;4.00;3.70;;;23.90;99.90;;;;;;4927857;28;20553;-76
2023/08/15 06:30:59;;;;;;;4.83;3.53;;;23.90;99.90;;;;;;4925169;28;21219;-76
2023/08/15 06:33:25;;;;;;;3.80;3.37;;;23.90;99.90;;;;;;4922287;28;20517;-76
2023/08/15 06:35:53;;;;;;;4.20;3.37;;;23.90;99.90;;;;;;4926424;28;21080;-77
2023/08/15 06:38:20;;;;;;;6.20;3.87;;;23.90;99.90;;;;;;4924553;28;21241;-76
2023/08/15 06:40:46;;;;;;;4.47;4.07;;;23.90;99.90;;;;;;4920632;28;20469;-76
2023/08/15 06:43:13;;;;;;;4.20;3.80;;;23.90;99.90;;;;;;4918917;28;21177;-76
2023/08/15 06:45:40;;;;;;;4.47;4.07;;;23.90;99.90;;;;;;4917631;28;20473;-76
2023/08/15 06:48:08;;;;;;;3.40;3.10;;;23.90;99.90;;;;;;4919715;28;20489;-76
2023/08/15 06:50:35;;;;;;;3.57;2.97;;;23.90;99.90;;;;;;4917727;28;20477;-76
2023/08/15 06:53:01;;;;;;;3.70;3.30;;;23.90;99.90;;;;;;4920394;28;20971;-76
2023/08/15 06:55:28;;;;;;;3.40;3.10;;;23.90;99.90;;;;;;4916759;28;20627;-76
2023/08/15 06:57:55;;;;;;;3.03;2.60;;;23.90;99.90;;;;;;4918134;28;20459;-77
2023/08/15 07:00:22;;;;;;;3.40;3.10;;;23.90;99.90;;;;;;4921861;28;21071;-77
2023/08/15 07:02:50;;;;;;;3.03;2.83;;;23.90;99.90;;;;;;4917812;28;20476;-77
2023/08/15 07:05:18;;;;;;;3.50;3.20;;;23.90;99.90;;;;;;4919450;28;20466;-77
2023/08/15 07:07:45;;;;;;;2.37;2.17;;;23.90;99.90;;;;;;4919720;28;20879;-77
2023/08/15 07:10:12;;;;;;;3.10;2.90;;;23.90;99.90;;;;;;4920287;28;20481;-77
2023/08/15 07:12:39;;;;;;;2.83;2.63;;;23.90;99.90;;;;;;4922923;28;22405;-77
2023/08/15 07:15:07;;;;;;;2.80;2.60;;;23.90;99.90;;;;;;4915650;28;20457;-76
2023/08/15 07:17:34;;;;;;;2.77;2.57;;;23.80;99.90;;;;;;4922917;28;20572;-76
2023/08/15 07:20:00;;;;;;;3.03;2.83;;;23.90;99.90;;;;;;4920760;28;20476;-77
2023/08/15 07:22:28;;;;;;;3.50;3.20;;;23.90;99.90;;;;;;4921008;28;20493;-76
2023/08/15 07:24:55;;;;;;;3.70;3.13;;;23.80;99.90;;;;;;4924146;28;20467;-76
2023/08/15 07:27:22;;;;;;;2.83;2.63;;;23.90;99.90;;;;;;4924472;28;20804;-76
2023/08/15 07:29:49;;;;;;;2.83;2.60;;;23.80;99.90;;;;;;4928397;28;20542;-76
2023/08/15 07:32:15;;;;;;;2.90;2.60;;;23.90;99.90;;;;;;4928699;28;20924;-76
2023/08/15 07:34:42;;;;;;;3.53;3.23;;;23.80;99.90;;;;;;4924583;28;20468;-76
2023/08/15 07:37:09;;;;;;;3.70;2.73;;;23.90;99.90;;;;;;4926317;28;20966;-76
2023/08/15 07:39:37;;;;;;;2.80;2.60;;;23.90;99.90;;;;;;4927298;28;20501;-78
2023/08/15 07:42:04;;;;;;;4.83;2.90;;;23.80;99.90;;;;;;4925260;28;20466;-76
2023/08/15 07:44:31;;;;;;;2.77;2.57;;;23.80;99.90;;;;;;4918689;28;20476;-76
2023/08/15 07:46:58;;;;;;;4.03;3.23;;;23.80;99.90;;;;;;4922289;28;20474;-79
2023/08/15 07:49:25;;;;;;;4.70;4.13;;;23.80;99.90;;;;;;4925569;28;20505;-80
2023/08/15 07:51:52;;;;;;;6.23;4.33;;;23.80;99.90;;;;;;4930096;28;20468;-80
2023/08/15 07:54:19;;;;;;;12.47;6.00;;;23.80;99.90;;;;;;4924538;28;20929;-80
2023/08/15 07:56:48;;;;;;;5.27;4.77;;;23.80;99.90;;;;;;4924846;28;20580;-79
2023/08/15 07:59:14;;;;;;;7.50;5.07;;;23.90;99.90;;;;;;4925651;28;20469;-79
2023/08/15 08:01:41;;;;;;;4.97;4.43;;;23.90;99.90;;;;;;4915472;28;20477;-80
2023/08/15 08:04:08;;;;;;;16.80;6.90;;;23.90;99.90;;;;;;4923606;28;20467;-79
2023/08/15 08:06:35;;;;;;;9.27;5.90;;;23.90;99.90;;;;;;4921085;28;20503;-80
2023/08/15 08:09:05;;;;;;;11.70;6.57;;;23.90;99.90;;;;;;4924976;28;20494;-80
2023/08/15 08:11:31;;;;;;;7.50;5.57;;;23.80;99.90;;;;;;4918589;28;20884;-79
2023/08/15 08:13:59;;;;;;;7.23;5.07;;;23.80;99.90;;;;;;4921954;28;21412;-79
2023/08/15 08:16:26;;;;;;;8.40;6.20;;;23.80;99.90;;;;;;4917837;28;20465;-79
2023/08/15 08:18:53;;;;;;;9.00;5.60;;;23.80;99.90;;;;;;4920340;28;20468;-80
2023/08/15 08:21:19;;;;;;;7.33;5.40;;;23.80;99.90;;;;;;4923503;28;20805;-79
2023/08/15 08:23:46;;;;;;;6.73;4.73;;;23.80;99.90;;;;;;4924443;28;20464;-79
2023/08/15 08:26:13;;;;;;;6.23;5.63;;;23.80;99.90;;;;;;4922735;28;20464;-78
2023/08/15 08:28:40;;;;;;;8.57;5.47;;;23.80;99.90;;;;;;4924307;28;20490;-79
2023/08/15 08:31:08;;;;;;;6.00;4.93;;;23.70;99.90;;;;;;4922754;28;20871;-80
2023/08/15 08:33:34;;;;;;;6.67;5.47;;;23.80;99.90;;;;;;4926004;28;20470;-79
2023/08/15 08:36:01;;;;;;;8.03;5.80;;;23.80;99.90;;;;;;4925805;28;20474;-80
2023/08/15 08:38:28;;;;;;;10.60;5.30;;;23.80;99.90;;;;;;4922844;28;20477;-79
2023/08/15 08:40:55;;;;;;;7.20;5.43;;;23.80;99.90;;;;;;4919084;28;21151;-79
2023/08/15 08:43:22;;;;;;;6.40;5.40;;;23.80;99.90;;;;;;4920866;28;20471;-86
2023/08/15 08:45:49;;;;;;;11.10;5.67;;;23.80;99.90;;;;;;4919299;28;21434;-84
2023/08/15 08:48:18;;;;;;;7.70;5.20;;;23.80;99.90;;;;;;4922725;28;20578;-84
2023/08/15 08:50:46;;;;;;;7.07;5.50;;;23.80;99.90;;;;;;4920727;28;20470;-86
2023/08/15 08:53:13;;;;;;;11.83;5.60;;;23.80;99.90;;;;;;4922456;28;20935;-83
2023/08/15 08:55:40;;;;;;;8.40;5.20;;;23.80;99.90;;;;;;4921545;28;20461;-90
2023/08/15 08:58:12;;;;;;;7.10;5.40;;;23.80;99.90;;;;;;4928727;28;20688;-90
2023/08/15 09:00:41;;;;;;;6.37;5.60;;;23.80;99.90;;;;;;4930325;28;20869;-90
2023/08/15 09:03:09;;;;;;;5.90;4.10;;;23.80;99.90;;;;;;4931052;29;20457;-91
2023/08/15 09:05:37;;;;;;;8.83;5.83;;;23.80;99.90;;;;;;4926318;28;20481;-91
2023/08/15 09:08:05;;;;;;;5.77;4.40;;;23.80;99.90;;;;;;4931207;28;20786;-90
2023/08/15 09:10:32;;;;;;;9.10;5.40;;;23.80;99.90;;;;;;4931523;29;20465;-90
2023/08/15 09:13:00;;;;;;;7.53;5.07;;;23.80;99.90;;;;;;4933446;28;20469;-92
2023/08/15 09:15:27;;;;;;;5.30;4.60;;;23.80;99.90;;;;;;4928106;28;20600;-91
2023/08/15 09:17:58;;;;;;;5.60;4.40;;;23.80;99.90;;;;;;4930685;28;20519;-91
2023/08/15 09:20:25;;;;;;;5.40;4.80;;;23.80;99.90;;;;;;4932768;29;20538;-90
2023/08/15 09:22:58;;;;;;;10.17;4.93;;;23.80;99.90;;;;;;4930885;28;20495;-90
2023/08/15 09:25:27;;;;;;;6.70;4.73;;;23.80;99.90;;;;;;4930197;28;20472;-90
2023/08/15 09:27:54;;;;;;;7.07;5.10;;;23.80;99.90;;;;;;4934261;28;21252;-91
2023/08/15 09:30:22;;;;;;;3.97;3.57;;;23.80;99.90;;;;;;4932437;28;20516;-91
2023/08/15 09:32:48;;;;;;;4.90;4.30;;;23.80;99.90;;;;;;4936373;28;20887;-91
2023/08/15 09:35:17;;;;;;;4.57;3.90;;;23.80;99.90;;;;;;4932474;28;20462;-90
2023/08/15 09:37:45;;;;;;;6.53;4.23;;;23.80;99.90;;;;;;4935354;28;20471;-90
2023/08/15 09:40:16;;;;;;;5.53;3.83;;;23.80;99.90;;;;;;4928532;28;20472;-89
2023/08/15 09:42:43;;;;;;;10.47;4.73;;;23.80;99.90;;;;;;4933283;28;20461;-89
2023/08/15 09:45:12;;;;;;;6.77;4.70;;;23.80;99.90;;;;;;4930861;28;20985;-91
2023/08/15 09:47:39;;;;;;;7.50;3.90;;;23.80;99.90;;;;;;4934183;28;20467;-90
2023/08/15 09:50:08;;;;;;;7.37;4.60;;;23.80;99.90;;;;;;4930498;28;20967;-90
2023/08/15 09:52:36;;;;;;;6.20;4.50;;;23.80;99.90;;;;;;4929669;28;20553;-91
2023/08/15 09:55:03;;;;;;;8.73;4.33;;;23.80;99.90;;;;;;4928383;28;20459;-91
2023/08/15 09:57:31;;;;;;;5.60;4.27;;;23.80;99.90;;;;;;4930999;28;20469;-90
2023/08/15 09:59:58;;;;;;;6.13;4.47;;;23.80;99.90;;;;;;4933104;28;20471;-90
2023/08/15 10:02:29;;;;;;;5.43;3.90;;;23.80;99.90;;;;;;4929535;28;20469;-90
2023/08/15 10:05:01;;;;;;;4.77;3.40;;;23.80;99.90;;;;;;4928919;28;20472;-91
2023/08/15 10:07:31;;;;;;;4.27;3.47;;;23.80;99.90;;;;;;4928720;28;20891;-91
2023/08/15 10:10:01;;;;;;;3.93;3.53;;;23.80;99.90;;;;;;4927291;28;20487;-88
2023/08/15 10:12:29;;;;;;;8.40;4.10;;;23.80;99.90;;;;;;4922184;28;20496;-86
2023/08/15 10:14:58;;;;;;;4.70;3.37;;;23.80;99.90;;;;;;4925082;28;21002;-85
2023/08/15 10:17:26;;;;;;;6.50;4.10;;;23.80;99.90;;;;;;4922496;28;20526;-86
2023/08/15 10:19:52;;;;;;;5.23;4.00;;;23.80;99.90;;;;;;4922310;28;20466;-85
2023/08/15 10:22:19;;;;;;;5.47;3.37;;;23.80;99.90;;;;;;4923807;28;21001;-85
2023/08/15 10:24:46;;;;;;;7.50;4.33;;;23.80;99.90;;;;;;4925374;28;20458;-82
2023/08/15 10:27:14;;;;;;;6.50;3.57;;;23.80;99.90;;;;;;4922374;28;20465;-82
2023/08/15 10:29:58;;;;;;;7.47;3.30;;;23.80;99.90;;;;;;4926423;28;20490;-83
2023/08/15 10:32:26;;;;;;;4.80;3.30;;;23.80;99.90;;;;;;4924849;28;20988;-83
2023/08/15 10:34:59;;;;;;;5.30;3.10;;;23.80;99.90;;;;;;4923890;28;20936;-85
2023/08/15 10:37:31;;;;;;;5.60;2.87;;;23.80;99.90;;;;;;4925517;28;20459;-84
2023/08/15 10:40:09;;;;;;;4.43;3.23;;;23.80;99.90;;;;;;4924393;28;20466;-85
2023/08/15 10:43:07;;;;;;;5.80;3.47;;;23.80;99.90;;;;;;4920555;28;21128;-83
2023/08/15 10:45:40;;;;;;;6.13;3.20;;;23.80;99.90;;;;;;4921873;28;20477;-89
2023/08/15 10:48:07;;;;;;;6.40;3.70;;;23.80;99.90;;;;;;4925701;28;20488;-88
2023/08/15 10:50:34;;;;;;;5.90;3.27;;;23.80;99.90;;;;;;4925847;28;20520;-87
2023/08/15 10:53:03;;;;;;;3.77;3.07;;;23.80;99.90;;;;;;4928502;28;20476;-90
2023/08/15 10:55:31;;;;;;;7.07;3.47;;;23.80;99.90;;;;;;4924334;28;20469;-82
2023/08/15 10:57:58;;;;;;;4.53;2.83;;;23.80;99.90;;;;;;4930078;28;20485;-85
2023/08/15 11:00:27;;;;;;;4.87;2.77;;;23.80;99.90;;;;;;4933399;29;20466;-86
2023/08/15 11:02:55;;;;;;;4.87;3.73;;;23.80;99.90;;;;;;4934010;28;20476;-87
2023/08/15 11:05:22;;;;;;;4.30;3.13;;;23.80;99.90;;;;;;4933792;29;20465;-88
2023/08/15 11:07:49;;;;;;;7.10;3.07;;;23.80;99.90;;;;;;4927797;28;21148;-85
2023/08/15 11:10:16;;;;;;;3.27;2.63;;;23.80;99.90;;;;;;4924906;28;20827;-86
2023/08/15 11:12:50;;;;;;;6.60;3.27;;;23.80;99.90;;;;;;4930795;28;20470;-85
2023/08/15 11:15:17;;;;;;;3.50;3.03;;;23.90;99.90;;;;;;4928342;28;20575;-85
2023/08/15 11:17:46;;;;;;;3.57;2.70;;;23.80;99.90;;;;;;4907652;28;20531;-86
2023/08/15 11:20:14;;;;;;;4.23;2.67;;;23.90;99.90;;;;;;4906164;29;20469;-84
2023/08/15 11:22:41;;;;;;;5.97;3.37;;;23.90;99.90;;;;;;4905272;29;20477;-85
2023/08/15 11:25:09;;;;;;;5.80;3.63;;;23.80;99.90;;;;;;4905345;29;20472;-85
2023/08/15 11:27:45;;;;;;;4.63;2.90;;;23.90;99.90;;;;;;4912023;29;20993;-83
2023/08/15 11:30:13;;;;;;;4.07;2.50;;;23.90;99.90;;;;;;4910869;29;20494;-84
2023/08/15 11:32:40;;;;;;;4.90;3.00;;;23.90;99.90;;;;;;4909456;29;20481;-83
2023/08/15 11:35:07;;;;;;;3.83;3.10;;;23.90;99.90;;;;;;4908961;29;20573;-85
2023/08/15 11:37:36;;;;;;;5.40;2.23;;;23.90;99.90;;;;;;4914816;29;20473;-85
2023/08/15 11:40:03;;;;;;;3.03;2.50;;;23.90;99.90;;;;;;4913277;29;20513;-88
2023/08/15 11:42:30;;;;;;;5.43;2.63;;;23.90;99.90;;;;;;4896037;29;20467;-87
2023/08/15 11:45:10;;;;;;;4.33;2.37;;;23.90;99.90;;;;;;4906348;29;20982;-79
2023/08/15 11:47:37;;;;;;;4.10;2.67;;;23.90;99.90;;;;;;4903872;29;20451;-83
2023/08/15 11:50:09;;;;;;;4.00;2.20;;;23.90;99.90;;;;;;4908476;29;20896;-83
2023/08/15 11:52:43;;;;;;;6.20;2.87;;;23.90;99.90;;;;;;4908748;29;20549;-80
2023/08/15 11:55:11;;;;;;;8.33;3.23;;;23.90;99.90;;;;;;4907413;29;20486;-80
2023/08/15 11:57:37;;;;;;;6.67;3.20;;;23.90;99.90;;;;;;4910221;29;21035;-81
2023/08/15 12:00:05;;;;;;;5.27;2.60;;;23.90;99.90;;;;;;4909526;29;20879;-82
2023/08/15 12:02:34;;;;;;;5.10;2.00;;;23.90;99.90;;;;;;4912856;29;20466;-82
2023/08/15 12:05:09;;;;;;;4.50;2.60;;;23.90;99.90;;;;;;4912968;29;20587;-82
2023/08/15 12:07:36;;;;;;;9.30;2.33;;;23.90;99.90;;;;;;4914369;29;20473;-82
2023/08/15 12:10:06;;;;;;;5.47;2.33;;;23.90;99.90;;;;;;4905630;29;20519;-82
2023/08/15 12:12:38;;;;;;;4.73;2.53;;;23.90;99.90;;;;;;4908235;29;20473;-82
2023/08/15 12:15:07;;;;;;;3.53;2.23;;;23.90;99.90;;;;;;4908253;29;20665;-83
2023/08/15 12:17:34;;;;;;;4.67;2.13;;;23.90;99.90;;;;;;4914422;29;20832;-86
2023/08/15 12:20:01;;;;;;;5.37;2.43;;;23.90;99.90;;;;;;4914434;29;20958;-82
2023/08/15 12:22:28;;;;;;;4.13;2.17;;;23.90;99.90;;;;;;4913674;29;20470;-82
2023/08/15 12:24:55;;;;;;;4.43;2.70;;;23.90;99.90;;;;;;4913245;29;20727;-82
2023/08/15 12:27:24;;;;;;;4.47;2.50;;;23.90;99.90;;;;;;4904821;29;20963;-81
2023/08/15 12:29:50;;;;;;;4.43;2.40;;;23.90;99.90;;;;;;4932558;28;20520;-81
2023/08/15 12:32:18;;;;;;;6.50;2.33;;;23.90;99.90;;;;;;4929908;28;20473;-82
2023/08/15 12:34:46;;;;;;;3.90;2.57;;;23.90;99.90;;;;;;4932289;28;20907;-82
2023/08/15 12:37:13;;;;;;;3.27;2.60;;;23.90;99.90;;;;;;4932380;28;20860;-82
2023/08/15 12:39:39;;;;;;;2.77;2.23;;;23.90;99.90;;;;;;4932739;28;20469;-81
2023/08/15 12:42:07;;;;;;;4.20;2.20;;;23.90;99.90;;;;;;4929096;28;20470;-81
2023/08/15 12:44:35;;;;;;;5.13;2.70;;;23.90;99.90;;;;;;4931781;28;20887;-81
2023/08/15 12:47:02;;;;;;;4.50;2.30;;;23.90;99.90;;;;;;4930125;28;20472;-81
2023/08/15 12:49:29;;;;;;;4.53;2.63;;;23.90;99.90;;;;;;4934576;29;20478;-82